sensor_id;sensor_type;location;lat;lon;timestamp;P1;durP1;ratioP1;P2;durP2;ratioP2
40701;SDS011;26387;50.114;8.662;2022-10-31T00:01:37;43.40;;;18.25;;
40701;SDS011;26387;50.114;8.662;2022-10-31T00:04:03;37.78;;;19.05;;
40701;SDS011;26387;50.114;8.662;2022-10-31T00:06:29;38.55;;;19.58;;
40701;SDS011;26387;50.114;8.662;2022-10-31T00:08:57;40.70;;;19.48;;
40701;SDS011;26387;50.114;8.662;2022-10-31T00:11:24;44.92;;;18.52;;
40701;SDS011;26387;50.114;8.662;2022-10-31T00:13:50;35.42;;;19.33;;
40701;SDS011;26387;50.114;8.662;2022-10-31T00:16:16;37.63;;;18.75;;
40701;SDS011;26387;50.114;8.662;2022-10-31T00:18:43;33.33;;;18.33;;
40701;SDS011;26387;50.114;8.662;2022-10-31T00:21:09;36.25;;;17.67;;
40701;SDS011;26387;50.114;8.662;2022-10-31T00:23:35;34.40;;;19.67;;
40701;SDS011;26387;50.114;8.662;2022-10-31T00:26:01;33.20;;;17.25;;
40701;SDS011;26387;50.114;8.662;2022-10-31T00:28:28;32.75;;;18.10;;
40701;SDS011;26387;50.114;8.662;2022-10-31T00:30:57;33.83;;;17.65;;
40701;SDS011;26387;50.114;8.662;2022-10-31T00:33:23;33.35;;;17.05;;
40701;SDS011;26387;50.114;8.662;2022-10-31T00:35:49;29.75;;;16.90;;
40701;SDS011;26387;50.114;8.662;2022-10-31T00:38:16;34.53;;;17.60;;
40701;SDS011;26387;50.114;8.662;2022-10-31T00:40:42;29.60;;;17.38;;
40701;SDS011;26387;50.114;8.662;2022-10-31T00:43:08;30.83;;;17.55;;
40701;SDS011;26387;50.114;8.662;2022-10-31T00:45:34;33.70;;;17.02;;
40701;SDS011;26387;50.114;8.662;2022-10-31T00:48:00;32.20;;;16.40;;
40701;SDS011;26387;50.114;8.662;2022-10-31T00:50:26;36.97;;;16.33;;
40701;SDS011;26387;50.114;8.662;2022-10-31T00:52:51;29.63;;;16.20;;
40701;SDS011;26387;50.114;8.662;2022-10-31T00:55:17;28.40;;;15.63;;
40701;SDS011;26387;50.114;8.662;2022-10-31T00:57:46;27.23;;;15.15;;
40701;SDS011;26387;50.114;8.662;2022-10-31T01:00:12;26.70;;;15.18;;
40701;SDS011;26387;50.114;8.662;2022-10-31T01:02:38;30.45;;;15.65;;
40701;SDS011;26387;50.114;8.662;2022-10-31T01:05:04;32.42;;;16.48;;
40701;SDS011;26387;50.114;8.662;2022-10-31T01:07:30;29.90;;;15.52;;
40701;SDS011;26387;50.114;8.662;2022-10-31T01:09:56;31.98;;;16.10;;
40701;SDS011;26387;50.114;8.662;2022-10-31T01:12:22;26.55;;;14.93;;
40701;SDS011;26387;50.114;8.662;2022-10-31T01:14:48;25.58;;;14.57;;
40701;SDS011;26387;50.114;8.662;2022-10-31T01:17:14;28.48;;;14.20;;
40701;SDS011;26387;50.114;8.662;2022-10-31T01:19:40;28.42;;;13.68;;
40701;SDS011;26387;50.114;8.662;2022-10-31T01:22:06;30.85;;;14.38;;
40701;SDS011;26387;50.114;8.662;2022-10-31T01:24:32;26.08;;;14.23;;
40701;SDS011;26387;50.114;8.662;2022-10-31T01:26:58;27.75;;;14.82;;
40701;SDS011;26387;50.114;8.662;2022-10-31T01:29:24;31.17;;;14.90;;
40701;SDS011;26387;50.114;8.662;2022-10-31T01:31:50;24.63;;;13.77;;
40701;SDS011;26387;50.114;8.662;2022-10-31T01:34:16;25.83;;;14.57;;
40701;SDS011;26387;50.114;8.662;2022-10-31T01:36:42;25.45;;;14.32;;
40701;SDS011;26387;50.114;8.662;2022-10-31T01:39:10;34.17;;;14.77;;
40701;SDS011;26387;50.114;8.662;2022-10-31T01:41:38;28.60;;;14.85;;
40701;SDS011;26387;50.114;8.662;2022-10-31T01:49:08;29.20;;;14.48;;
40701;SDS011;26387;50.114;8.662;2022-10-31T01:51:36;23.35;;;13.35;;
40701;SDS011;26387;50.114;8.662;2022-10-31T01:54:06;35.00;;;14.15;;
40701;SDS011;26387;50.114;8.662;2022-10-31T01:56:34;29.38;;;13.82;;
40701;SDS011;26387;50.114;8.662;2022-10-31T01:59:02;30.10;;;14.23;;
40701;SDS011;26387;50.114;8.662;2022-10-31T02:01:30;28.05;;;14.00;;
40701;SDS011;26387;50.114;8.662;2022-10-31T02:03:56;24.52;;;13.95;;
40701;SDS011;26387;50.114;8.662;2022-10-31T02:06:32;26.35;;;13.25;;
40701;SDS011;26387;50.114;8.662;2022-10-31T02:08:59;24.42;;;13.07;;
40701;SDS011;26387;50.114;8.662;2022-10-31T02:11:27;25.55;;;14.32;;
40701;SDS011;26387;50.114;8.662;2022-10-31T02:13:54;29.90;;;13.55;;
40701;SDS011;26387;50.114;8.662;2022-10-31T02:16:20;26.10;;;12.75;;
40701;SDS011;26387;50.114;8.662;2022-10-31T02:18:46;26.33;;;13.40;;
40701;SDS011;26387;50.114;8.662;2022-10-31T02:21:15;27.33;;;12.68;;
40701;SDS011;26387;50.114;8.662;2022-10-31T02:23:53;23.50;;;12.75;;
40701;SDS011;26387;50.114;8.662;2022-10-31T02:29:08;21.63;;;12.10;;
40701;SDS011;26387;50.114;8.662;2022-10-31T02:34:13;21.42;;;12.32;;
40701;SDS011;26387;50.114;8.662;2022-10-31T02:36:52;18.08;;;11.00;;
40701;SDS011;26387;50.114;8.662;2022-10-31T02:39:22;23.77;;;11.82;;
40701;SDS011;26387;50.114;8.662;2022-10-31T02:46:48;16.73;;;10.27;;
40701;SDS011;26387;50.114;8.662;2022-10-31T02:49:20;23.77;;;11.00;;
40701;SDS011;26387;50.114;8.662;2022-10-31T02:51:47;22.75;;;11.65;;
40701;SDS011;26387;50.114;8.662;2022-10-31T02:54:24;23.92;;;11.15;;
40701;SDS011;26387;50.114;8.662;2022-10-31T02:56:52;24.10;;;11.15;;
40701;SDS011;26387;50.114;8.662;2022-10-31T02:59:18;23.83;;;11.82;;
40701;SDS011;26387;50.114;8.662;2022-10-31T03:01:56;18.65;;;11.10;;
40701;SDS011;26387;50.114;8.662;2022-10-31T03:12:29;24.33;;;11.65;;
40701;SDS011;26387;50.114;8.662;2022-10-31T03:15:19;23.38;;;11.30;;
40701;SDS011;26387;50.114;8.662;2022-10-31T03:17:47;17.77;;;11.35;;
40701;SDS011;26387;50.114;8.662;2022-10-31T03:20:16;23.27;;;11.15;;
40701;SDS011;26387;50.114;8.662;2022-10-31T03:22:45;19.90;;;11.13;;
40701;SDS011;26387;50.114;8.662;2022-10-31T03:25:11;21.30;;;11.98;;
40701;SDS011;26387;50.114;8.662;2022-10-31T03:27:37;18.15;;;11.18;;
40701;SDS011;26387;50.114;8.662;2022-10-31T03:30:05;31.20;;;11.52;;
40701;SDS011;26387;50.114;8.662;2022-10-31T03:34:59;21.25;;;11.00;;
40701;SDS011;26387;50.114;8.662;2022-10-31T03:37:25;20.85;;;11.32;;
40701;SDS011;26387;50.114;8.662;2022-10-31T03:39:52;22.08;;;11.00;;
40701;SDS011;26387;50.114;8.662;2022-10-31T03:42:23;21.65;;;10.73;;
40701;SDS011;26387;50.114;8.662;2022-10-31T03:44:52;20.33;;;10.60;;
40701;SDS011;26387;50.114;8.662;2022-10-31T03:47:19;20.73;;;10.88;;
40701;SDS011;26387;50.114;8.662;2022-10-31T03:49:45;23.60;;;10.63;;
40701;SDS011;26387;50.114;8.662;2022-10-31T03:52:13;19.92;;;10.73;;
40701;SDS011;26387;50.114;8.662;2022-10-31T03:54:46;25.42;;;11.23;;
40701;SDS011;26387;50.114;8.662;2022-10-31T03:57:27;27.23;;;12.23;;
40701;SDS011;26387;50.114;8.662;2022-10-31T03:59:55;20.52;;;10.43;;
40701;SDS011;26387;50.114;8.662;2022-10-31T04:02:25;24.80;;;10.82;;
40701;SDS011;26387;50.114;8.662;2022-10-31T04:04:51;18.20;;;9.95;;
40701;SDS011;26387;50.114;8.662;2022-10-31T04:07:18;19.23;;;9.90;;
40701;SDS011;26387;50.114;8.662;2022-10-31T04:09:46;22.42;;;10.15;;
40701;SDS011;26387;50.114;8.662;2022-10-31T04:12:14;19.05;;;10.18;;
40701;SDS011;26387;50.114;8.662;2022-10-31T04:14:41;23.88;;;9.98;;
40701;SDS011;26387;50.114;8.662;2022-10-31T04:17:09;17.45;;;10.52;;
40701;SDS011;26387;50.114;8.662;2022-10-31T04:19:36;20.75;;;10.43;;
40701;SDS011;26387;50.114;8.662;2022-10-31T04:22:02;28.67;;;11.45;;
40701;SDS011;26387;50.114;8.662;2022-10-31T04:24:28;18.20;;;10.23;;
40701;SDS011;26387;50.114;8.662;2022-10-31T04:26:54;22.83;;;9.88;;
40701;SDS011;26387;50.114;8.662;2022-10-31T04:29:20;19.55;;;10.70;;
40701;SDS011;26387;50.114;8.662;2022-10-31T04:31:46;17.98;;;10.20;;
40701;SDS011;26387;50.114;8.662;2022-10-31T04:34:12;24.27;;;10.38;;
40701;SDS011;26387;50.114;8.662;2022-10-31T04:36:38;22.40;;;10.63;;
40701;SDS011;26387;50.114;8.662;2022-10-31T04:39:04;23.58;;;10.05;;
40701;SDS011;26387;50.114;8.662;2022-10-31T04:41:30;18.77;;;10.18;;
40701;SDS011;26387;50.114;8.662;2022-10-31T04:43:55;17.95;;;10.05;;
40701;SDS011;26387;50.114;8.662;2022-10-31T04:46:21;23.15;;;10.73;;
40701;SDS011;26387;50.114;8.662;2022-10-31T04:48:48;21.70;;;11.57;;
40701;SDS011;26387;50.114;8.662;2022-10-31T04:51:13;21.40;;;10.40;;
40701;SDS011;26387;50.114;8.662;2022-10-31T04:53:39;24.15;;;10.75;;
40701;SDS011;26387;50.114;8.662;2022-10-31T04:56:05;17.98;;;11.00;;
40701;SDS011;26387;50.114;8.662;2022-10-31T04:58:32;15.23;;;9.73;;
40701;SDS011;26387;50.114;8.662;2022-10-31T05:00:58;19.70;;;10.48;;
40701;SDS011;26387;50.114;8.662;2022-10-31T05:03:23;25.60;;;10.70;;
40701;SDS011;26387;50.114;8.662;2022-10-31T05:05:49;18.35;;;10.00;;
40701;SDS011;26387;50.114;8.662;2022-10-31T05:08:15;20.35;;;9.60;;
40701;SDS011;26387;50.114;8.662;2022-10-31T05:10:41;16.65;;;9.57;;
40701;SDS011;26387;50.114;8.662;2022-10-31T05:13:07;17.92;;;9.48;;
40701;SDS011;26387;50.114;8.662;2022-10-31T05:15:34;24.70;;;9.80;;
40701;SDS011;26387;50.114;8.662;2022-10-31T05:18:00;15.88;;;9.63;;
40701;SDS011;26387;50.114;8.662;2022-10-31T05:20:27;19.92;;;9.63;;
40701;SDS011;26387;50.114;8.662;2022-10-31T05:22:53;24.23;;;9.52;;
40701;SDS011;26387;50.114;8.662;2022-10-31T05:25:20;25.95;;;9.98;;
40701;SDS011;26387;50.114;8.662;2022-10-31T05:27:47;22.20;;;9.88;;
40701;SDS011;26387;50.114;8.662;2022-10-31T05:30:14;21.75;;;10.48;;
40701;SDS011;26387;50.114;8.662;2022-10-31T05:32:41;21.23;;;9.93;;
40701;SDS011;26387;50.114;8.662;2022-10-31T05:35:09;24.52;;;10.75;;
40701;SDS011;26387;50.114;8.662;2022-10-31T05:37:35;18.45;;;9.43;;
40701;SDS011;26387;50.114;8.662;2022-10-31T05:40:01;19.65;;;9.80;;
40701;SDS011;26387;50.114;8.662;2022-10-31T05:42:27;21.15;;;9.90;;
40701;SDS011;26387;50.114;8.662;2022-10-31T05:44:53;18.92;;;9.68;;
40701;SDS011;26387;50.114;8.662;2022-10-31T05:47:19;19.05;;;9.70;;
40701;SDS011;26387;50.114;8.662;2022-10-31T05:49:45;19.42;;;10.77;;
40701;SDS011;26387;50.114;8.662;2022-10-31T05:52:11;17.42;;;9.60;;
40701;SDS011;26387;50.114;8.662;2022-10-31T05:54:37;19.67;;;9.77;;
40701;SDS011;26387;50.114;8.662;2022-10-31T05:57:03;20.40;;;10.45;;
40701;SDS011;26387;50.114;8.662;2022-10-31T05:59:29;18.90;;;9.85;;
40701;SDS011;26387;50.114;8.662;2022-10-31T06:01:55;24.70;;;10.20;;
40701;SDS011;26387;50.114;8.662;2022-10-31T06:04:21;18.48;;;9.95;;
40701;SDS011;26387;50.114;8.662;2022-10-31T06:06:47;22.80;;;10.05;;
40701;SDS011;26387;50.114;8.662;2022-10-31T06:09:13;23.25;;;9.88;;
40701;SDS011;26387;50.114;8.662;2022-10-31T06:11:39;19.92;;;9.65;;
40701;SDS011;26387;50.114;8.662;2022-10-31T06:14:05;22.20;;;10.93;;
40701;SDS011;26387;50.114;8.662;2022-10-31T06:16:31;19.90;;;9.60;;
40701;SDS011;26387;50.114;8.662;2022-10-31T06:18:57;17.35;;;9.65;;
40701;SDS011;26387;50.114;8.662;2022-10-31T06:21:23;22.27;;;10.88;;
40701;SDS011;26387;50.114;8.662;2022-10-31T06:23:49;21.83;;;9.60;;
40701;SDS011;26387;50.114;8.662;2022-10-31T06:26:15;15.73;;;9.70;;
40701;SDS011;26387;50.114;8.662;2022-10-31T06:28:41;18.30;;;9.23;;
40701;SDS011;26387;50.114;8.662;2022-10-31T06:31:07;16.10;;;9.50;;
40701;SDS011;26387;50.114;8.662;2022-10-31T06:33:33;19.20;;;10.18;;
40701;SDS011;26387;50.114;8.662;2022-10-31T06:35:59;21.20;;;10.52;;
40701;SDS011;26387;50.114;8.662;2022-10-31T06:38:25;21.48;;;10.23;;
40701;SDS011;26387;50.114;8.662;2022-10-31T06:40:51;18.45;;;9.57;;
40701;SDS011;26387;50.114;8.662;2022-10-31T06:43:17;18.63;;;9.45;;
40701;SDS011;26387;50.114;8.662;2022-10-31T06:45:43;19.27;;;9.73;;
40701;SDS011;26387;50.114;8.662;2022-10-31T06:48:09;18.40;;;9.43;;
40701;SDS011;26387;50.114;8.662;2022-10-31T06:50:35;21.50;;;9.98;;
40701;SDS011;26387;50.114;8.662;2022-10-31T06:53:01;17.95;;;9.35;;
40701;SDS011;26387;50.114;8.662;2022-10-31T06:55:27;21.52;;;10.13;;
40701;SDS011;26387;50.114;8.662;2022-10-31T06:57:57;20.00;;;9.35;;
40701;SDS011;26387;50.114;8.662;2022-10-31T07:00:24;21.98;;;10.40;;
40701;SDS011;26387;50.114;8.662;2022-10-31T07:02:54;19.17;;;9.77;;
40701;SDS011;26387;50.114;8.662;2022-10-31T07:05:20;15.38;;;9.00;;
40701;SDS011;26387;50.114;8.662;2022-10-31T07:07:46;15.27;;;8.88;;
40701;SDS011;26387;50.114;8.662;2022-10-31T07:10:12;18.17;;;9.95;;
40701;SDS011;26387;50.114;8.662;2022-10-31T07:12:38;17.73;;;9.70;;
40701;SDS011;26387;50.114;8.662;2022-10-31T07:15:04;24.45;;;9.30;;
40701;SDS011;26387;50.114;8.662;2022-10-31T07:17:30;23.33;;;9.45;;
40701;SDS011;26387;50.114;8.662;2022-10-31T07:19:56;19.33;;;9.15;;
40701;SDS011;26387;50.114;8.662;2022-10-31T07:22:22;24.48;;;9.23;;
40701;SDS011;26387;50.114;8.662;2022-10-31T07:24:48;19.92;;;8.93;;
40701;SDS011;26387;50.114;8.662;2022-10-31T07:27:14;18.95;;;9.40;;
40701;SDS011;26387;50.114;8.662;2022-10-31T07:29:40;19.08;;;9.23;;
40701;SDS011;26387;50.114;8.662;2022-10-31T07:32:06;17.23;;;8.82;;
40701;SDS011;26387;50.114;8.662;2022-10-31T07:34:32;17.30;;;8.93;;
40701;SDS011;26387;50.114;8.662;2022-10-31T07:36:58;19.10;;;9.40;;
40701;SDS011;26387;50.114;8.662;2022-10-31T07:39:24;16.52;;;8.68;;
40701;SDS011;26387;50.114;8.662;2022-10-31T07:41:50;15.90;;;9.20;;
40701;SDS011;26387;50.114;8.662;2022-10-31T07:44:16;19.42;;;9.35;;
40701;SDS011;26387;50.114;8.662;2022-10-31T07:46:42;19.23;;;8.73;;
40701;SDS011;26387;50.114;8.662;2022-10-31T07:49:08;22.33;;;10.25;;
40701;SDS011;26387;50.114;8.662;2022-10-31T07:51:34;21.67;;;9.70;;
40701;SDS011;26387;50.114;8.662;2022-10-31T07:54:00;20.63;;;9.55;;
40701;SDS011;26387;50.114;8.662;2022-10-31T07:56:26;21.63;;;9.55;;
40701;SDS011;26387;50.114;8.662;2022-10-31T07:58:52;20.85;;;10.20;;
40701;SDS011;26387;50.114;8.662;2022-10-31T08:01:18;22.92;;;9.88;;
40701;SDS011;26387;50.114;8.662;2022-10-31T08:03:44;21.73;;;10.70;;
40701;SDS011;26387;50.114;8.662;2022-10-31T08:06:10;18.27;;;10.07;;
40701;SDS011;26387;50.114;8.662;2022-10-31T08:08:35;25.30;;;10.90;;
40701;SDS011;26387;50.114;8.662;2022-10-31T08:11:02;20.40;;;10.32;;
40701;SDS011;26387;50.114;8.662;2022-10-31T08:13:28;25.05;;;11.57;;
40701;SDS011;26387;50.114;8.662;2022-10-31T08:15:54;20.40;;;11.80;;
40701;SDS011;26387;50.114;8.662;2022-10-31T08:18:20;25.95;;;11.55;;
40701;SDS011;26387;50.114;8.662;2022-10-31T08:20:48;28.35;;;12.98;;
40701;SDS011;26387;50.114;8.662;2022-10-31T08:23:14;25.70;;;12.25;;
40701;SDS011;26387;50.114;8.662;2022-10-31T08:25:41;23.45;;;13.05;;
40701;SDS011;26387;50.114;8.662;2022-10-31T08:28:08;24.10;;;13.68;;
40701;SDS011;26387;50.114;8.662;2022-10-31T08:30:34;28.63;;;13.90;;
40701;SDS011;26387;50.114;8.662;2022-10-31T08:33:11;21.85;;;13.93;;
40701;SDS011;26387;50.114;8.662;2022-10-31T08:35:37;29.73;;;14.23;;
40701;SDS011;26387;50.114;8.662;2022-10-31T08:38:03;25.52;;;13.55;;
40701;SDS011;26387;50.114;8.662;2022-10-31T08:40:30;26.65;;;13.82;;
40701;SDS011;26387;50.114;8.662;2022-10-31T08:42:57;25.77;;;12.93;;
40701;SDS011;26387;50.114;8.662;2022-10-31T08:45:23;24.30;;;12.82;;
40701;SDS011;26387;50.114;8.662;2022-10-31T08:47:49;25.30;;;12.25;;
40701;SDS011;26387;50.114;8.662;2022-10-31T08:50:15;22.67;;;12.10;;
40701;SDS011;26387;50.114;8.662;2022-10-31T08:52:41;22.60;;;12.02;;
40701;SDS011;26387;50.114;8.662;2022-10-31T08:55:07;22.38;;;11.23;;
40701;SDS011;26387;50.114;8.662;2022-10-31T08:57:33;26.25;;;10.95;;
40701;SDS011;26387;50.114;8.662;2022-10-31T08:59:59;23.55;;;11.98;;
40701;SDS011;26387;50.114;8.662;2022-10-31T09:02:25;23.40;;;12.10;;
40701;SDS011;26387;50.114;8.662;2022-10-31T09:04:51;20.88;;;11.98;;
40701;SDS011;26387;50.114;8.662;2022-10-31T09:07:17;27.90;;;11.95;;
40701;SDS011;26387;50.114;8.662;2022-10-31T09:09:43;18.52;;;11.20;;
40701;SDS011;26387;50.114;8.662;2022-10-31T09:12:09;21.92;;;12.95;;
40701;SDS011;26387;50.114;8.662;2022-10-31T09:14:35;25.23;;;12.07;;
40701;SDS011;26387;50.114;8.662;2022-10-31T09:17:01;24.15;;;12.85;;
40701;SDS011;26387;50.114;8.662;2022-10-31T09:19:27;22.15;;;12.82;;
40701;SDS011;26387;50.114;8.662;2022-10-31T09:21:53;22.73;;;12.65;;
40701;SDS011;26387;50.114;8.662;2022-10-31T09:24:19;26.08;;;13.38;;
40701;SDS011;26387;50.114;8.662;2022-10-31T09:26:45;22.92;;;13.15;;
40701;SDS011;26387;50.114;8.662;2022-10-31T09:29:11;23.40;;;12.98;;
40701;SDS011;26387;50.114;8.662;2022-10-31T09:31:37;25.15;;;13.80;;
40701;SDS011;26387;50.114;8.662;2022-10-31T09:34:03;26.23;;;13.85;;
40701;SDS011;26387;50.114;8.662;2022-10-31T09:36:29;28.00;;;14.70;;
40701;SDS011;26387;50.114;8.662;2022-10-31T09:38:55;23.45;;;13.85;;
40701;SDS011;26387;50.114;8.662;2022-10-31T09:46:29;29.65;;;14.48;;
40701;SDS011;26387;50.114;8.662;2022-10-31T09:51:40;26.27;;;14.48;;
40701;SDS011;26387;50.114;8.662;2022-10-31T09:54:11;25.88;;;14.80;;
40701;SDS011;26387;50.114;8.662;2022-10-31T09:56:38;29.17;;;14.95;;
40701;SDS011;26387;50.114;8.662;2022-10-31T09:59:05;30.95;;;14.57;;
40701;SDS011;26387;50.114;8.662;2022-10-31T10:03:59;24.33;;;14.65;;
40701;SDS011;26387;50.114;8.662;2022-10-31T10:06:28;29.27;;;14.73;;
40701;SDS011;26387;50.114;8.662;2022-10-31T10:08:55;32.35;;;14.13;;
40701;SDS011;26387;50.114;8.662;2022-10-31T10:11:37;24.70;;;14.25;;
40701;SDS011;26387;50.114;8.662;2022-10-31T10:22:17;31.10;;;14.60;;
40701;SDS011;26387;50.114;8.662;2022-10-31T10:30:13;26.23;;;14.35;;
40701;SDS011;26387;50.114;8.662;2022-10-31T10:35:20;31.93;;;15.10;;
40701;SDS011;26387;50.114;8.662;2022-10-31T10:37:49;31.38;;;13.82;;
40701;SDS011;26387;50.114;8.662;2022-10-31T10:40:17;25.60;;;14.00;;
40701;SDS011;26387;50.114;8.662;2022-10-31T10:42:56;27.90;;;14.68;;
40701;SDS011;26387;50.114;8.662;2022-10-31T10:45:43;34.53;;;15.90;;
40701;SDS011;26387;50.114;8.662;2022-10-31T10:48:36;30.73;;;14.77;;
40701;SDS011;26387;50.114;8.662;2022-10-31T10:51:05;34.47;;;15.45;;
40701;SDS011;26387;50.114;8.662;2022-10-31T10:53:39;33.17;;;15.57;;
40701;SDS011;26387;50.114;8.662;2022-10-31T10:56:30;27.45;;;15.50;;
40701;SDS011;26387;50.114;8.662;2022-10-31T10:58:58;34.92;;;17.52;;
40701;SDS011;26387;50.114;8.662;2022-10-31T11:01:24;34.90;;;16.98;;
40701;SDS011;26387;50.114;8.662;2022-10-31T11:03:50;36.55;;;16.88;;
40701;SDS011;26387;50.114;8.662;2022-10-31T11:06:25;34.17;;;17.27;;
40701;SDS011;26387;50.114;8.662;2022-10-31T11:08:51;33.90;;;16.95;;
40701;SDS011;26387;50.114;8.662;2022-10-31T11:13:44;34.53;;;16.75;;
40701;SDS011;26387;50.114;8.662;2022-10-31T11:18:51;30.65;;;16.23;;
40701;SDS011;26387;50.114;8.662;2022-10-31T11:21:28;35.35;;;16.70;;
40701;SDS011;26387;50.114;8.662;2022-10-31T11:24:04;33.40;;;16.50;;
40701;SDS011;26387;50.114;8.662;2022-10-31T11:26:38;33.45;;;16.42;;
40701;SDS011;26387;50.114;8.662;2022-10-31T11:29:05;33.55;;;16.75;;
40701;SDS011;26387;50.114;8.662;2022-10-31T11:31:36;31.73;;;16.50;;
40701;SDS011;26387;50.114;8.662;2022-10-31T11:34:07;34.25;;;17.40;;
40701;SDS011;26387;50.114;8.662;2022-10-31T11:36:39;37.40;;;18.25;;
40701;SDS011;26387;50.114;8.662;2022-10-31T11:39:13;28.90;;;16.75;;
40701;SDS011;26387;50.114;8.662;2022-10-31T11:41:40;31.17;;;16.45;;
40701;SDS011;26387;50.114;8.662;2022-10-31T11:46:46;31.98;;;17.63;;
40701;SDS011;26387;50.114;8.662;2022-10-31T11:49:15;37.03;;;16.88;;
40701;SDS011;26387;50.114;8.662;2022-10-31T11:51:41;37.80;;;19.23;;
40701;SDS011;26387;50.114;8.662;2022-10-31T11:54:15;31.80;;;17.35;;
40701;SDS011;26387;50.114;8.662;2022-10-31T11:56:41;31.98;;;16.45;;
40701;SDS011;26387;50.114;8.662;2022-10-31T11:59:25;33.35;;;17.30;;
40701;SDS011;26387;50.114;8.662;2022-10-31T12:01:52;27.40;;;14.75;;
40701;SDS011;26387;50.114;8.662;2022-10-31T12:04:18;25.50;;;15.88;;
40701;SDS011;26387;50.114;8.662;2022-10-31T12:06:49;24.02;;;13.77;;
40701;SDS011;26387;50.114;8.662;2022-10-31T12:11:45;28.83;;;13.02;;
40701;SDS011;26387;50.114;8.662;2022-10-31T12:17:13;26.60;;;13.68;;
40701;SDS011;26387;50.114;8.662;2022-10-31T12:25:07;27.60;;;12.52;;
40701;SDS011;26387;50.114;8.662;2022-10-31T12:27:43;24.65;;;12.25;;
40701;SDS011;26387;50.114;8.662;2022-10-31T12:30:20;24.30;;;11.95;;
40701;SDS011;26387;50.114;8.662;2022-10-31T12:35:30;24.80;;;12.90;;
40701;SDS011;26387;50.114;8.662;2022-10-31T12:38:10;23.90;;;12.05;;
40701;SDS011;26387;50.114;8.662;2022-10-31T12:45:58;21.13;;;11.73;;
40701;SDS011;26387;50.114;8.662;2022-10-31T12:53:42;24.92;;;11.20;;
40701;SDS011;26387;50.114;8.662;2022-10-31T12:56:23;32.47;;;13.93;;
40701;SDS011;26387;50.114;8.662;2022-10-31T12:59:41;24.48;;;10.85;;
40701;SDS011;26387;50.114;8.662;2022-10-31T13:02:04;21.13;;;10.40;;
40701;SDS011;26387;50.114;8.662;2022-10-31T13:07:03;24.75;;;10.93;;
40701;SDS011;26387;50.114;8.662;2022-10-31T13:09:34;21.10;;;10.18;;
40701;SDS011;26387;50.114;8.662;2022-10-31T13:12:02;21.02;;;10.23;;
40701;SDS011;26387;50.114;8.662;2022-10-31T13:14:32;23.35;;;10.48;;
40701;SDS011;26387;50.114;8.662;2022-10-31T13:16:59;19.85;;;9.57;;
40701;SDS011;26387;50.114;8.662;2022-10-31T13:19:25;18.60;;;9.05;;
40701;SDS011;26387;50.114;8.662;2022-10-31T13:24:21;19.73;;;9.27;;
40701;SDS011;26387;50.114;8.662;2022-10-31T13:26:52;17.63;;;9.20;;
40701;SDS011;26387;50.114;8.662;2022-10-31T13:29:33;20.65;;;8.57;;
40701;SDS011;26387;50.114;8.662;2022-10-31T13:31:59;20.27;;;9.55;;
40701;SDS011;26387;50.114;8.662;2022-10-31T13:34:27;20.73;;;8.05;;
40701;SDS011;26387;50.114;8.662;2022-10-31T13:36:57;23.50;;;8.75;;
40701;SDS011;26387;50.114;8.662;2022-10-31T13:39:33;20.52;;;7.75;;
40701;SDS011;26387;50.114;8.662;2022-10-31T13:44:35;18.70;;;8.10;;
40701;SDS011;26387;50.114;8.662;2022-10-31T13:47:20;16.35;;;7.93;;
40701;SDS011;26387;50.114;8.662;2022-10-31T13:49:46;23.55;;;7.82;;
40701;SDS011;26387;50.114;8.662;2022-10-31T13:54:39;13.43;;;6.78;;
40701;SDS011;26387;50.114;8.662;2022-10-31T13:57:06;19.60;;;6.85;;
40701;SDS011;26387;50.114;8.662;2022-10-31T13:59:34;17.33;;;7.50;;
40701;SDS011;26387;50.114;8.662;2022-10-31T14:02:12;16.83;;;7.38;;
40701;SDS011;26387;50.114;8.662;2022-10-31T14:04:47;16.35;;;7.25;;
40701;SDS011;26387;50.114;8.662;2022-10-31T14:07:15;21.45;;;8.32;;
40701;SDS011;26387;50.114;8.662;2022-10-31T14:09:51;26.75;;;8.35;;
40701;SDS011;26387;50.114;8.662;2022-10-31T14:14:52;31.33;;;10.00;;
40701;SDS011;26387;50.114;8.662;2022-10-31T14:17:29;23.08;;;8.57;;
40701;SDS011;26387;50.114;8.662;2022-10-31T14:20:40;17.48;;;7.68;;
40701;SDS011;26387;50.114;8.662;2022-10-31T14:22:47;13.85;;;7.10;;
40701;SDS011;26387;50.114;8.662;2022-10-31T14:25:26;14.25;;;7.45;;
40701;SDS011;26387;50.114;8.662;2022-10-31T14:27:52;20.90;;;9.38;;
40701;SDS011;26387;50.114;8.662;2022-10-31T14:30:19;16.98;;;7.93;;
40701;SDS011;26387;50.114;8.662;2022-10-31T14:35:54;22.30;;;7.47;;
40701;SDS011;26387;50.114;8.662;2022-10-31T14:38:26;20.20;;;7.43;;
40701;SDS011;26387;50.114;8.662;2022-10-31T14:41:28;14.35;;;6.50;;
40701;SDS011;26387;50.114;8.662;2022-10-31T14:46:46;38.67;;;10.02;;
40701;SDS011;26387;50.114;8.662;2022-10-31T14:51:59;15.82;;;7.65;;
40701;SDS011;26387;50.114;8.662;2022-10-31T14:54:27;21.40;;;7.63;;
40701;SDS011;26387;50.114;8.662;2022-10-31T14:57:05;20.25;;;7.95;;
40701;SDS011;26387;50.114;8.662;2022-10-31T14:59:33;16.80;;;7.85;;
40701;SDS011;26387;50.114;8.662;2022-10-31T15:04:59;22.02;;;7.97;;
40701;SDS011;26387;50.114;8.662;2022-10-31T15:07:26;29.75;;;9.23;;
40701;SDS011;26387;50.114;8.662;2022-10-31T15:09:56;25.23;;;8.52;;
40701;SDS011;26387;50.114;8.662;2022-10-31T15:14:52;20.27;;;8.55;;
40701;SDS011;26387;50.114;8.662;2022-10-31T15:17:19;22.90;;;8.73;;
40701;SDS011;26387;50.114;8.662;2022-10-31T15:19:45;27.98;;;8.45;;
40701;SDS011;26387;50.114;8.662;2022-10-31T15:22:14;22.95;;;8.20;;
40701;SDS011;26387;50.114;8.662;2022-10-31T15:24:41;14.52;;;8.00;;
40701;SDS011;26387;50.114;8.662;2022-10-31T15:27:12;19.63;;;8.25;;
40701;SDS011;26387;50.114;8.662;2022-10-31T15:29:47;20.42;;;8.40;;
40701;SDS011;26387;50.114;8.662;2022-10-31T15:32:24;22.40;;;8.13;;
40701;SDS011;26387;50.114;8.662;2022-10-31T15:34:51;21.60;;;8.40;;
40701;SDS011;26387;50.114;8.662;2022-10-31T15:37:19;24.92;;;9.75;;
40701;SDS011;26387;50.114;8.662;2022-10-31T15:39:46;21.60;;;8.35;;
40701;SDS011;26387;50.114;8.662;2022-10-31T15:42:23;23.70;;;8.55;;
40701;SDS011;26387;50.114;8.662;2022-10-31T15:45:00;20.60;;;8.52;;
40701;SDS011;26387;50.114;8.662;2022-10-31T15:47:30;22.98;;;7.57;;
40701;SDS011;26387;50.114;8.662;2022-10-31T15:49:58;16.42;;;7.90;;
40701;SDS011;26387;50.114;8.662;2022-10-31T15:57:55;21.83;;;8.60;;
40701;SDS011;26387;50.114;8.662;2022-10-31T16:00:38;19.95;;;8.45;;
40701;SDS011;26387;50.114;8.662;2022-10-31T16:05:43;17.70;;;8.85;;
40701;SDS011;26387;50.114;8.662;2022-10-31T16:08:21;19.27;;;8.45;;
40701;SDS011;26387;50.114;8.662;2022-10-31T16:10:49;14.90;;;7.20;;
40701;SDS011;26387;50.114;8.662;2022-10-31T16:13:15;20.55;;;8.68;;
40701;SDS011;26387;50.114;8.662;2022-10-31T16:15:55;18.17;;;8.32;;
40701;SDS011;26387;50.114;8.662;2022-10-31T16:18:25;23.98;;;8.77;;
40701;SDS011;26387;50.114;8.662;2022-10-31T16:20:53;23.52;;;12.30;;
40701;SDS011;26387;50.114;8.662;2022-10-31T16:23:21;22.90;;;10.77;;
40701;SDS011;26387;50.114;8.662;2022-10-31T16:25:49;18.02;;;9.38;;
40701;SDS011;26387;50.114;8.662;2022-10-31T16:28:17;17.85;;;8.55;;
40701;SDS011;26387;50.114;8.662;2022-10-31T16:30:46;19.35;;;8.90;;
40701;SDS011;26387;50.114;8.662;2022-10-31T16:36:35;19.30;;;9.50;;